Juan Martinez

Olheiro-Chefe - Guarani
23 Out 2027
Sábado
Processo

Personalidade

Adaptabilidade (7) Ambição (12) Controvérsia (3) Lealdade (20) Pressão (14) Profissionalismo (3) Espírito Esportivo (18) Temperamento (11)

Perfil

Estilo de Treinamento Democrático
Licença Continental C
Determinação 10
Gestão de Pessoas 11
Motivação 5
Disciplina 9
Satisfação no Trabalho
100%
Fadiga
0%
Função Olheiro-Chefe
Salário 47.9K p/s
Contrato 14.03.2028

Desempenho

Comportamento Bom
Eficácia do Treinamento
26%
Desenvolvimento do Jogador
40%
Prevenção de Lesões
45%
Implementação Tática
20%

Eventos Recentes

Recomendou um alvo de transferência agora
Recomendou um alvo de transferência agora
Recomendou um alvo de transferência agora
Recomendou um alvo de transferência agora
Recomendou um alvo de transferência agora
Avaliou um jogador agora
Avaliou um jogador agora
Avaliou um jogador agora

Monitorando agora

281
Jogador Clube Status Habilidade Confiança Observado Última observação Último voto
Onuorah Onyedika Kun Khalifat Ativo 85 / 102 40% 2 22.10.2027 -
Nahuel Leivas Montevideo City Torque Ativo 104 / 110 40% 2 22.10.2027 -
Luka Andrade Montevideo City Torque Ativo 100 / 114 40% 1 22.10.2027 -
Dilan Godoy Vélez Ativo 113 / 119 40% 6 21.10.2027 -
Oskar Spiten-Nysæter Molde Ativo 120 / 131 40% 3 21.10.2027 -
Alex Amaefula Kun Khalifat Ativo 86 / 96 40% 1 21.10.2027 -
Chimobi Igwilo Rangers International Ativo 90 / 87 40% 3 20.10.2027 -
Esteban de Lima Tacuarembo Ativo 91 / 98 40% 3 20.10.2027 -
Sheriff Amuda Shooting Stars Ativo 87 / 85 40% 1 20.10.2027 -
Olaniyi Saheed Kwara United Ativo 90 / 91 40% 1 20.10.2027 -
Kaick FC Dallas Ativo 100 / 122 40% 1 20.10.2027 -
Felipe Obradovich Gimnasia La Plata Ativo 109 / 108 40% 1 20.10.2027 -
Abubakar Garba Nasarawa United Ativo 97 / 109 40% 3 19.10.2027 -
Mlindelwa Nyanisa APS Bomet Ativo 70 / 57 40% 1 19.10.2027 -
Jonatan Resquin Quilmes Ativo 85 / 103 40% 4 18.10.2027 -
Sergio Castillo Cortulua Ativo 107 / 117 40% 9 18.10.2027 -
Elkín Morales Universitario Popayan Ativo 79 / 74 40% 1 18.10.2027 -
Luis Yanes Real Cartagena Ativo 89 / 100 40% 2 16.10.2027 -
Wilfred Correa Caracas Ativo 94 / 90 40% 1 16.10.2027 -
Felix Mosquera Deportes Quindio Ativo 93 / 90 40% 1 16.10.2027 -
Jhon Renteria Sarmiento Ativo 110 / 119 40% 3 15.10.2027 -
Sebastián Ramírez America de Cali Ativo 108 / 113 40% 2 15.10.2027 -
Fabian Sanchez Llaneros Ativo 77 / 69 40% 1 15.10.2027 -
Mateo Silvetti Inter Miami CF Ativo 127 / 145 40% 4 12.10.2027 -
Sunday Aniebet Enyimba Ativo 90 / 93 40% 4 12.10.2027 -
Thiago Szkaluba Santiago Wanderers Ativo 90 / 108 40% 1 12.10.2027 -
Emmanuel Ndubueze Shooting Stars Ativo 91 / 82 40% 2 11.10.2027 -
Thiago D'Archivio Alvarado Ativo 80 / 96 40% 2 10.10.2027 -
Facundo Balatti Penarol Ativo 102 / 107 40% 2 10.10.2027 -
Lautaro Ávila Racing Ativo 95 / 99 40% 2 09.10.2027 -
Bryan Caicedo Leones Ativo 105 / 95 40% 4 09.10.2027 -
Tiago Gordillo San Miguel Ativo 89 / 95 40% 6 09.10.2027 -
Tomás Parmo River Plate Ativo 120 / 133 40% 1 09.10.2027 -
Chibueze Oputa Rangers International Ativo 84 / 91 40% 1 09.10.2027 -
Luca Regiardo Newell's Old Boys Ativo 104 / 115 40% 6 07.10.2027 -
Tiziano Cabrera Central Norte Ativo 89 / 99 40% 4 05.10.2027 -
Mateo Peralta Danubio Ativo 109 / 108 40% 4 05.10.2027 -
Emiliano Zambrano Gimnasia y Esgrima Ativo 89 / 103 40% 2 05.10.2027 -
Agustín Medina Lanús Ativo 117 / 134 40% 2 04.10.2027 -
Dylan Salvo Defensores Unidos Ativo 100 / 94 40% 1 04.10.2027 -
Lucas Barrientos Los Andes Ativo 97 / 112 40% 1 04.10.2027 -
Halam Loboa Independiente Medellin Ativo 118 / 125 40% 1 04.10.2027 -
Mateo Pérez Curci Independiente Ativo 111 / 122 40% 2 30.09.2027 -
Gonzalo Gelini Boca Juniors Ativo 118 / 126 40% 1 30.09.2027 -
Juan Camilo Córdoba Deportivo Pereira Ativo 84 / 84 40% 1 30.09.2027 -
Giovanni Cantizano Rosario Central Ativo 112 / 112 40% 4 28.09.2027 -
Didier Dawson Envigado Ativo 106 / 119 40% 2 28.09.2027 -
Nicolás Azambuja Danubio Ativo 117 / 130 40% 2 27.09.2027 -
Julián Bragado Morón Ativo 80 / 93 40% 1 27.09.2027 -
Diogo Guzmán Montevideo City Torque Ativo 113 / 115 40% 3 25.09.2027 -
Tiago Borquez Gimnasia y Tiro Ativo 81 / 86 40% 1 25.09.2027 -
Agustín Obregón River Plate Ativo 110 / 111 40% 1 24.09.2027 -
Joel Medina Independiente Ativo 109 / 120 40% 1 23.09.2027 -
Joel Ezra Enyimba Ativo 96 / 89 40% 2 20.09.2027 -
Lucas Duré Montevideo City Torque Ativo 102 / 96 40% 2 20.09.2027 -
Mateo Aguiar Defensa y Justicia Ativo 108 / 114 40% 3 19.09.2027 -
Ian Subiabre River Plate Ativo 117 / 135 40% 1 16.09.2027 -
Geanfranco Rodríguez Defensor Sporting Ativo 91 / 109 40% 1 15.09.2027 -
Franco Minerva Platense Ativo 119 / 116 40% 1 12.09.2027 -
Chinedu Nwosu Bendel Insurance Ativo 86 / 75 40% 1 10.09.2027 -
Camilo Rey Domenech Racing Club Ativo 117 / 126 40% 1 07.09.2027 -
Tiziano Noriega Tristán Suárez Ativo 92 / 110 40% 1 06.09.2027 -
José Recalde Libertad Ativo 92 / 84 79% 1 12.07.2027 Aprovar
Estifen Díaz Libertad Ativo 94 / 95 79% 1 06.06.2027 Aprovar
Caio Vidal FC Copenhagen Negociando 128 / 129 63% 1 01.06.2027 Aprovar
Gladson Sulemana Liberty Professionals Ativo 91 / 120 40% 3 30.05.2027 -
Mfundo Vilakazi Kaizer Chiefs Ativo 116 / 121 40% 3 30.05.2027 -
Alphadjo Cissé Pisa Ativo 132 / 143 40% 4 30.05.2027 -
Abraham Paintsil Hasaacas Ativo 94 / 98 40% 3 29.05.2027 -
Jofre Torrents Ajax Ativo 122 / 130 40% 3 29.05.2027 -
Facundo Di Biasi Getafe Ativo 117 / 108 40% 1 29.05.2027 -
Stevan Manuel Benfica Ativo 90 / 111 40% 1 26.05.2027 -
Jonathan De Irastorza Levante Ativo 127 / 140 40% 6 25.05.2027 -
Amine Moussaoui Angers SCO Ativo 98 / 97 40% 3 25.05.2027 -
Jay Robinson Southampton Ativo 126 / 136 40% 1 25.05.2027 -
Kamarni Ryan Salford City Ativo 94 / 99 40% 4 24.05.2027 -
Caleb Yirenkyi Coventry City Ativo 144 / 128 40% 5 24.05.2027 -
Ishmael Addo Heart of Lions Ativo 88 / 109 40% 4 22.05.2027 -
Sidiki Chérif Coventry City Ativo 119 / 128 40% 2 20.05.2027 -
Christos Mouzakitis Hull City Ativo 131 / 141 40% 3 17.05.2027 -
Santiago Puzzo Almería Ativo 100 / 94 40% 1 17.05.2027 -
Sam Curtis Swindon Town Ativo 93 / 111 40% 2 16.05.2027 -
Manu Rodríguez Gijón Ativo 103 / 100 40% 3 16.05.2027 -
Dani Díaz Real Sociedad Ativo 112 / 113 40% 3 15.05.2027 -
Ronwen Khune Black Aces Ativo 88 / 83 40% 2 15.05.2027 -
Othmane Maamma Watford Ativo 126 / 133 40% 10 14.05.2027 -
Monty Batlhabane Polokwane City Ativo 106 / 82 40% 2 14.05.2027 -
Sindre Walle Egeli Nottingham Forest Ativo 139 / 151 40% 3 13.05.2027 -
Shea Lacey Millwall Ativo 116 / 131 40% 1 13.05.2027 -
Jeremías Merlo AC Milan Ativo 125 / 144 40% 1 13.05.2027 -
Bazoumana Touré Newcastle United Ativo 145 / 124 40% 7 12.05.2027 -
Maeson King Blackpool Ativo 112 / 97 40% 2 12.05.2027 -
André Miranda Porto Ativo 102 / 105 40% 1 12.05.2027 -
Martim Cunha Porto Ativo 103 / 91 40% 3 11.05.2027 -
Luther Lorch Free State Stars Ativo 90 / 108 40% 2 07.05.2027 -
Tobías Ramírez Sevilla Ativo 118 / 116 40% 2 06.05.2027 -
Diego Gaitán Maipú Ativo 106 / 108 40% 1 06.05.2027 -
Marco Oroná Antofagasta Ativo 100 / 103 40% 1 06.05.2027 -
Nicolás Rojas Banfield Ativo 100 / 115 40% 1 06.05.2027 -
Tomás Aranda Boca Juniors Ativo 109 / 113 40% 4 04.05.2027 -
Lucas Høgsberg Paris Saint-Germain Ativo 132 / 120 40% 1 03.05.2027 -
Juan David Arizala Udinese Ativo 125 / 121 40% 1 02.05.2027 -
Oumar Camara Vitoria Guimaraes Ativo 126 / 150 40% 2 30.04.2027 -
Bradley Zwane SuperSport United Ativo 105 / 105 40% 2 27.04.2027 -
Luke Baartman Bidvest Wits Ativo 108 / 117 40% 1 26.04.2027 -
Gonçalo Oliveira Benfica Ativo 107 / 122 40% 1 24.04.2027 -
Lucas Agazzi Defensor Sporting Ativo 121 / 118 40% 1 24.04.2027 -
Araphat Mohammed Medeama Ativo 94 / 111 40% 3 23.04.2027 -
Gorka Gorosabel Real Sociedad Ativo 112 / 117 40% 2 17.04.2027 -
Joseph Liteta Parma Ativo 100 / 93 40% 1 17.04.2027 -
Daniel Awuni Aduana Stars Ativo 90 / 109 40% 2 16.04.2027 -
Jayden Luker Newport County Ativo 94 / 97 40% 3 15.04.2027 -
Asanele Bonani Chippa United Ativo 85 / 77 40% 2 13.04.2027 -
Alex Verón Villarreal Ativo 110 / 128 40% 2 13.04.2027 -
Oscar Schwartau Norwich City Ativo 117 / 114 40% 3 12.04.2027 -
Leandro Martins Benfica Ativo 86 / 94 40% 1 12.04.2027 -
Dramane Kamagaté USM Alger Ativo 106 / 101 40% 1 11.04.2027 -
Benjamin Tsivanyo Aduana Stars Ativo 92 / 82 40% 1 23.02.2027 -
George Paaku Hearts of Oak Ativo 90 / 102 40% 1 22.02.2027 -
Ignacio Perruzzi Celta Ativo 121 / 140 40% 1 21.02.2027 -
Facundo Sánchez Los Andes Ativo 84 / 105 40% 1 19.02.2027 -
Valentino Acuña Newell's Old Boys Ativo 112 / 110 40% 1 18.02.2027 -
Lander Astiazarán Real Sociedad Ativo 104 / 129 40% 3 17.02.2027 -
Riley Owen Wycombe Wanderers Ativo 106 / 93 40% 1 17.02.2027 -
Luther Ngcobo Ajax Cape Town Ativo 99 / 122 40% 2 15.02.2027 -
Simphiwe Selepe Orlando Pirates Ativo 110 / 123 40% 1 09.02.2027 -
Zack Nelson Walsall Ativo 103 / 103 40% 1 09.02.2027 -
Nestory Irankunda Watford Ativo 118 / 119 40% 1 01.02.2027 -
Mateo Klimowicz Cerro Porteno Ativo 109 / 105 76% 1 28.12.2026 Aprovar
Juan Patiño Sol de America Ativo 113 / 118 76% 1 02.12.2026 Aprovar
Vicente Poggi Godoy Cruz Ativo 123 / 127 40% 1 30.11.2026 -
Manuel Duarte Barracas Central Ativo 122 / 123 40% 1 30.11.2026 -
Franco Zapiola Platense Ativo 120 / 117 40% 1 30.11.2026 -
Dylan Gorosito Boca Juniors Ativo 110 / 126 40% 4 29.11.2026 -
Valentino Huertas Morón Ativo 87 / 111 40% 2 29.11.2026 -
Tomás Escalante Plaza Colonia Ativo 121 / 119 40% 1 29.11.2026 -
Alejo Gelsomino Gimnasia La Plata Ativo 98 / 100 40% 3 25.11.2026 -
Xavier Biscayzacú Sporting CP Ativo 126 / 110 40% 2 25.11.2026 -
Gonzalo Lobos Lanús Ativo 98 / 101 40% 1 25.11.2026 -
El Hadji Malick Diouf Brentford Ativo 135 / 160 40% 3 23.11.2026 -
Alexis González Lanús Ativo 102 / 106 40% 1 23.11.2026 -
Santiago Segovia Rosario Central Ativo 109 / 117 40% 3 22.11.2026 -
Sebastián Flores Rayo Vallecano Ativo 93 / 104 40% 1 22.11.2026 -
Santiago Espíndola River Plate Ativo 96 / 118 40% 4 21.11.2026 -
Joel Flecha Barracas Central Ativo 89 / 90 40% 2 21.11.2026 -
Lautaro Mora Huracán Ativo 105 / 102 40% 3 20.11.2026 -
Ethan Mbappé LOSC Lille Ativo 140 / 146 40% 1 20.11.2026 -
Alan Coria Defensa y Justicia Ativo 95 / 112 40% 1 19.11.2026 -
Bautista Carboni Defensores Unidos Ativo 104 / 108 40% 3 18.11.2026 -
Jhon Aponza Boca Juniors Ativo 110 / 112 40% 1 17.11.2026 -
Galo Galarza Estudiantes Ativo 101 / 97 40% 1 17.11.2026 -
Francisco Lencinas Patronato Ativo 92 / 117 40% 1 17.11.2026 -
Joaquín Pereyra Estudiantes Ativo 93 / 109 40% 1 17.11.2026 -
Mauro Carrizo Atlético Tucumán Ativo 95 / 102 40% 3 14.11.2026 -
Matías Fernández-Pardo Newcastle United Ativo 148 / 128 40% 1 14.11.2026 -
Alan Forneris Racing Club Ativo 113 / 113 40% 2 12.11.2026 -
Guillermo Abregú Atlético Tucumán Ativo 93 / 102 40% 2 12.11.2026 -
Ramiro Martino Independiente Ativo 90 / 107 40% 1 12.11.2026 -
Mariano Gerez Lanús Ativo 98 / 97 40% 1 11.11.2026 -
Agustín Falcón Belgrano Ativo 95 / 88 40% 1 09.11.2026 -
Facundo Gulli San Lorenzo Ativo 120 / 134 40% 1 08.11.2026 -
Francisco Cuzzani Ferro Carril Oeste Ativo 96 / 111 40% 4 07.11.2026 -
Matías Cantero All Boys Ativo 91 / 105 40% 2 07.11.2026 -
Jhoan Merino Racing Club Ativo 88 / 84 40% 1 07.11.2026 -
Artem Slesar Zorya Ativo 104 / 93 40% 1 07.11.2026 -
Lautaro Díaz San Martín Ativo 86 / 90 40% 3 04.11.2026 -
Leonel Flores Boca Juniors Ativo 92 / 113 40% 2 04.11.2026 -
Alexei Dominguez Pachuca Ativo 111 / 132 40% 2 04.11.2026 -
Maximiliano Duarte Independiente Ativo 100 / 108 40% 2 03.11.2026 -
Thiago Silvero Sevilla Ativo 122 / 149 40% 1 03.11.2026 -
Kelvin Yeboah Minnesota United FC Ativo 129 / 136 40% 1 30.10.2026 -
Emi Rodriguez Leon Ativo 122 / 132 40% 1 30.10.2026 -
Darío Ramírez Real Sociedad Ativo 99 / 103 40% 1 30.10.2026 -
Franco Basualdo Estudiantes Ativo 95 / 101 40% 2 29.10.2026 -
Ramiro Vitale Racing Club Ativo 86 / 92 40% 2 24.10.2026 -
Adrián Vega Gimnasia y Tiro Ativo 83 / 84 40% 2 24.10.2026 -
Ramiro Montenegro Defensa y Justicia Ativo 81 / 94 40% 1 24.10.2026 -
Matías Gómez Valencia Ativo 103 / 103 40% 1 24.10.2026 -
Iarley Alayo Huracán Ativo 79 / 92 40% 1 23.10.2026 -
Enzo Guerrero Huracán Ativo 91 / 87 40% 2 22.10.2026 -
Paolo Dorini Central Norte Ativo 86 / 98 40% 2 21.10.2026 -
Gonzalo Escudero Racing Club Ativo 103 / 115 40% 3 20.10.2026 -
Nazareno Roselli Defensa y Justicia Ativo 111 / 114 40% 2 19.10.2026 -
Santiago Luna Quilmes Ativo 85 / 84 40% 1 19.10.2026 -
Conrado Martínez Ferro Carril Oeste Ativo 87 / 84 40% 2 17.10.2026 -
Facundo Piozzi Rosario Central Ativo 91 / 94 40% 1 17.10.2026 -
Santiago Ruiz Alvarado Ativo 87 / 94 40% 2 16.10.2026 -
Braian Cabral Madryn Ativo 79 / 87 40% 1 16.10.2026 -
Bautista Mamousse Chacarita Juniors Ativo 79 / 83 40% 1 16.10.2026 -
Fabián Báez Almirante Brown Ativo 71 / 73 40% 1 15.10.2026 -
Demian Rea Banfield Ativo 99 / 106 40% 1 15.10.2026 -
Santiago Cortes Atlético Tucumán Ativo 88 / 89 40% 1 14.10.2026 -
Lautaro Aranda Independiente Rivadavia Ativo 92 / 89 40% 1 14.10.2026 -
Valentino Massi Sarmiento Ativo 97 / 112 40% 5 12.10.2026 -
César Galíndez Belgrano Ativo 86 / 85 40% 3 12.10.2026 -
Juan Pablo Posse Atlético Tucumán Ativo 88 / 104 40% 1 12.10.2026 -
Francisco Razzeto Sarmiento Ativo 89 / 107 40% 1 11.10.2026 -
Aaron Vera Maipú Ativo 91 / 92 40% 2 06.10.2026 -
Joaquín Rivero Instituto Ativo 86 / 107 40% 1 05.10.2026 -
Abel Galbán Colón Ativo 91 / 90 40% 2 04.10.2026 -
Robert FC Copenhagen Ativo 132 / 124 40% 2 03.10.2026 -
Thiago Villalba Vélez Ativo 88 / 95 40% 2 02.10.2026 -
Lautaro Kapij Ferro Carril Oeste Ativo 83 / 87 40% 1 01.10.2026 -
Tiago Esidín Ferro Carril Oeste Ativo 96 / 96 40% 2 30.09.2026 -
Gian Padilla Talleres Ativo 79 / 82 40% 1 30.09.2026 -
Joaquín Parras Independiente Ativo 94 / 106 40% 1 30.09.2026 -
Santiago Medina Huracán Ativo 98 / 110 40% 1 29.09.2026 -
Aaron Centurión Vélez Ativo 94 / 106 40% 1 27.09.2026 -
Luca Landriel Maipú Ativo 82 / 87 40% 1 27.09.2026 -
Marcos López Banfield Ativo 102 / 105 40% 1 24.09.2026 -
Ariel Imperial Almirante Brown Ativo 81 / 86 40% 1 24.09.2026 -
Thiago Ponce Rosario Central Ativo 102 / 91 40% 1 23.09.2026 -
Branco Ripoll Aldosivi Ativo 92 / 90 40% 1 23.09.2026 -
Ignacio Gentile San Telmo Ativo 90 / 100 40% 1 21.09.2026 -
Tiziano Croci Vélez Ativo 98 / 106 40% 1 21.09.2026 -
Mateo Cirigliano Almagro Ativo 83 / 93 40% 1 19.09.2026 -
Lautaro Lobo San Telmo Ativo 89 / 93 40% 1 18.09.2026 -
Tadeo Polli San Martín Ativo 91 / 98 40% 2 17.09.2026 -
Matías Calegari Boca Juniors Ativo 90 / 108 40% 1 17.09.2026 -
Laureano Paez Colón Ativo 86 / 89 40% 3 15.09.2026 -
Bautista Maillier Colón Ativo 90 / 106 40% 1 15.09.2026 -
Tomás Perri Colegiales Ativo 79 / 96 40% 1 14.09.2026 -
Ignacio Vázquez Lanús Ativo 75 / 90 40% 1 14.09.2026 -
Bautista La Licata Belgrano Ativo 85 / 91 40% 1 14.09.2026 -
Agustín Campos All Boys Ativo 85 / 82 40% 1 14.09.2026 -
Agustín Alvez San Lorenzo Ativo 86 / 100 40% 1 14.09.2026 -
Mariano Bracamonte Deportivo Riestra Ativo 115 / 111 40% 1 14.09.2026 -
Marcos Enrique Tristán Suárez Ativo 115 / 120 40% 1 14.09.2026 -
Lucas Souto Defensa y Justicia Ativo 129 / 129 40% 1 13.09.2026 -
Jhamir D'Arrigo Melgar Ativo 111 / 126 40% 1 13.09.2026 -
Facundo Kalinger Huracán Ativo 107 / 110 40% 2 08.09.2026 -
Bénie Traoré New York City Ativo 115 / 138 40% 1 08.09.2026 -
Jorge Espejo Universidad de Concepcion Ativo 107 / 119 40% 1 08.09.2026 -
Antonio Galeano Remo Stars Ativo 122 / 127 40% 1 08.09.2026 -
Matías Magdaleno Estudiantes Ativo 92 / 106 40% 1 08.09.2026 -
Gerónimo Miranda San Telmo Ativo 81 / 103 40% 1 08.09.2026 -
Mateo Acuña Vélez Ativo 95 / 106 40% 1 08.09.2026 -
Braian Morales Boca Juniors Ativo 87 / 94 40% 1 05.09.2026 -
Pedro Dacrema Independiente Rivadavia Ativo 90 / 85 40% 4 04.09.2026 -
Agustín Gálvez Atlético Tucumán Ativo 89 / 95 40% 1 04.09.2026 -
Julián Scafati Independiente Ativo 87 / 111 40% 1 04.09.2026 -
Tomás Bustos Atlético Tucumán Ativo 88 / 102 40% 1 02.09.2026 -
Ramiro Paunero Atlético Tucumán Ativo 85 / 107 40% 2 01.09.2026 -
Lautaro Bianco Boca Juniors Ativo 96 / 105 40% 1 01.09.2026 -
Alan Falkiewicz San Telmo Ativo 82 / 83 40% 1 01.09.2026 -
Rodrigo Stocco Temperley Ativo 92 / 101 40% 1 01.09.2026 -
Martín Ortega Atlético Tucumán Ativo 85 / 107 40% 1 30.08.2026 -
Mateo Casas Belgrano Ativo 87 / 84 40% 1 30.08.2026 -
Bautista González Defensores Ativo 83 / 82 40% 1 29.08.2026 -
Uriel Perpetto Patronato Ativo 95 / 100 40% 2 28.08.2026 -
Diego León Manchester United Ativo 110 / 97 40% 1 28.08.2026 -
Facundo Carrizo Argentinos Juniors Ativo 96 / 98 40% 1 27.08.2026 -
Joel Godoy Sarmiento Ativo 106 / 126 40% 1 26.08.2026 -
Marco Vicente Rosario Central Ativo 90 / 90 40% 1 25.08.2026 -
Leonardo Ríos Rosario Central Ativo 89 / 83 40% 1 25.08.2026 -
Lautaro Alfieri Vélez Ativo 84 / 104 40% 1 25.08.2026 -
Thiago Alvez Independiente Ativo 110 / 105 40% 1 24.08.2026 -
Tiago Marghetich Quilmes Ativo 98 / 108 40% 1 23.08.2026 -
Lautaro Valdovinos Mitre Ativo 77 / 90 40% 1 23.08.2026 -
Lucas Flores River Plate Ativo 85 / 86 40% 1 21.08.2026 -
Joaquín Espina Rosario Central Ativo 81 / 88 40% 2 18.08.2026 -
Jonathan Ledesma Platense Ativo 81 / 104 40% 1 18.08.2026 -
Maximiliano Soria River Plate Ativo 88 / 90 40% 1 17.08.2026 -
Lautaro Jaimes Vélez Ativo 89 / 99 40% 1 16.08.2026 -
Alexis Yegros Racing Club Ativo 83 / 83 40% 1 15.08.2026 -
Santino Cavagna Sarmiento Ativo 78 / 100 40% 1 15.08.2026 -
Thiago Omar Pérez Huracán Ativo 88 / 95 40% 1 15.08.2026 -
Felipe Schaare Racing Club Ativo 94 / 97 40% 1 14.08.2026 -
Mateo Muñoz Vélez Ativo 90 / 91 40% 1 14.08.2026 -
Mario Alvarado Sarmiento Ativo 83 / 91 40% 1 14.08.2026 -
Felipe Tempone Independiente Ativo 82 / 99 40% 1 11.08.2026 -
Mateo Brignani Alvarado Ativo 82 / 97 40% 1 11.08.2026 -
Román González San Telmo Ativo 89 / 96 40% 1 11.08.2026 -
Deyvis Jallaza Estudiantes Ativo 79 / 87 40% 2 10.08.2026 -
Lucas Varela Defensa y Justicia Ativo 90 / 101 40% 1 10.08.2026 -
Tiago Franco Independiente Ativo 84 / 101 40% 1 10.08.2026 -
Tomás Luna San Telmo Ativo 92 / 90 40% 1 10.08.2026 -
Lautaro Lucero Ferro Carril Oeste Ativo 85 / 104 40% 1 10.08.2026 -
Ivo Brian Belgrano Ativo 88 / 96 40% 1 06.08.2026 -
Nicolás Borsotti Defensores Ativo 99 / 118 40% 1 01.08.2026 -
Peio Canales Athletic Bilbao Ativo 138 / 115 40% 1 01.08.2026 -